Mangotsfield, United Kingdom
Current Conditions -  °F | °C
As of 5:50 AM on Monday 20 Oct 2014 (Local Time) from EGGD Reporting Station
Broken Clouds Broken Clouds  
Wind Chill: 54°   Ceiling: 900
Heat Index: 54°   Visibility: 6mi
Dew Point: 52°   Wind: 8mph
Humidity: 94%   Direction: 230°SW
Pressure: 30"   Gusts: NA
Location:  51.49°N, 2.5°W
Report Text: EGGD 200450Z 23007KT 9999 FEW003 BKN009 12/11 Q1016
Loading
Personal Weather Stations






























Interactive Weather Map
Tropical Storm Tracking
New forecast layout! Learn more

10-Day Weather Forecast

Advertisements
Track Severe Weather on mobile